createdAt,value
2023-02-15T00:00:24.738Z,51.95
2023-02-15T00:05:34.185Z,52.13
2023-02-15T00:10:41.602Z,49.83
2023-02-15T00:15:48.710Z,50.53
2023-02-15T00:20:56.342Z,50.13
2023-02-15T00:26:15.113Z,50.00
2023-02-15T00:31:24.072Z,49.84
2023-02-15T00:36:32.276Z,50.20
2023-02-15T00:41:39.983Z,49.43
2023-02-15T00:46:48.337Z,48.87
2023-02-15T00:51:55.872Z,48.50
2023-02-15T00:57:03.226Z,49.87
2023-02-15T01:02:11.140Z,49.47
2023-02-15T01:07:18.303Z,48.33
2023-02-15T01:12:25.335Z,49.10
2023-02-15T01:17:33.036Z,50.43
2023-02-15T01:22:40.681Z,47.57
2023-02-15T01:27:48.206Z,50.97
2023-02-15T01:32:55.156Z,48.37
2023-02-15T01:43:15.353Z,47.30
2023-02-15T01:48:29.224Z,46.73
2023-02-15T01:53:46.789Z,49.07
2023-02-15T01:58:59.093Z,49.27
2023-02-15T02:04:22.070Z,48.83
2023-02-15T02:09:29.931Z,49.83
2023-02-15T02:14:38.615Z,50.40
2023-02-15T02:20:37.826Z,49.63
2023-02-15T02:26:27.484Z,51.08
2023-02-15T02:31:51.221Z,48.70
2023-02-15T02:37:18.392Z,48.93
2023-02-15T02:42:45.269Z,47.17
2023-02-15T02:48:01.125Z,49.87
2023-02-15T02:53:08.064Z,50.53
2023-02-15T02:58:46.221Z,48.57
2023-02-15T03:04:05.693Z,48.57
2023-02-15T03:09:39.453Z,48.77
2023-02-15T03:14:51.175Z,45.97
2023-02-15T03:20:02.892Z,46.07
2023-02-15T03:25:30.039Z,44.07
2023-02-15T03:30:40.574Z,42.80
2023-02-15T03:36:03.513Z,44.27
2023-02-15T03:41:12.140Z,41.47
2023-02-15T03:46:38.494Z,42.27
2023-02-15T03:51:49.836Z,43.13
2023-02-15T03:56:59.630Z,48.77
2023-02-15T04:02:20.390Z,50.73
2023-02-15T04:07:27.260Z,46.87
2023-02-15T04:12:35.224Z,46.53
2023-02-15T04:17:41.897Z,46.30
2023-02-15T04:23:08.403Z,46.10
2023-02-15T04:28:17.015Z,45.33
2023-02-15T04:33:25.126Z,45.38
2023-02-15T04:38:32.087Z,42.57
2023-02-15T04:43:40.643Z,43.03
2023-02-15T04:48:48.159Z,43.10
2023-02-15T04:53:55.969Z,42.67
2023-02-15T04:59:03.493Z,40.57
2023-02-15T05:04:10.884Z,40.07
2023-02-15T05:09:18.176Z,43.07
2023-02-15T05:14:25.818Z,42.23
2023-02-15T05:19:35.284Z,43.83
2023-02-15T05:25:00.152Z,43.83
2023-02-15T05:30:12.896Z,43.20
2023-02-15T05:35:20.413Z,41.90
2023-02-15T05:40:28.213Z,41.20
2023-02-15T05:45:36.333Z,39.78
2023-02-15T05:50:43.289Z,39.87
2023-02-15T05:55:50.754Z,39.30
2023-02-15T06:00:57.905Z,39.63
2023-02-15T06:06:05.781Z,39.40
2023-02-15T06:11:13.172Z,44.67
2023-02-15T06:16:20.270Z,50.50
2023-02-15T06:21:29.039Z,46.77
2023-02-15T06:26:36.108Z,44.87
2023-02-15T06:31:43.845Z,41.97
2023-02-15T06:36:51.252Z,44.37
2023-02-15T06:42:01.094Z,59.83
2023-02-15T06:47:09.175Z,40.93
2023-02-15T06:52:16.990Z,40.07
2023-02-15T06:57:25.039Z,40.55
2023-02-15T07:02:32.712Z,40.33
2023-02-15T07:07:39.988Z,41.98
2023-02-15T07:17:56.263Z,44.10
2023-02-15T07:23:03.921Z,43.83
2023-02-15T07:28:10.943Z,73.27
2023-02-15T07:33:28.650Z,53.30
2023-02-15T07:38:39.586Z,65.13
2023-02-15T07:43:48.058Z,65.67
2023-02-15T07:48:55.745Z,66.70
2023-02-15T07:54:02.799Z,64.40
2023-02-15T07:59:11.421Z,75.60
2023-02-15T08:04:19.335Z,78.93
2023-02-15T08:09:27.255Z,79.85
2023-02-15T08:14:34.421Z,70.90
2023-02-15T08:19:41.785Z,62.93
2023-02-15T08:24:52.046Z,60.53
2023-02-15T08:29:58.969Z,62.07
2023-02-15T08:35:06.626Z,61.68
2023-02-15T08:40:15.011Z,62.40
2023-02-15T08:45:22.470Z,72.65
2023-02-15T08:50:29.643Z,85.10
2023-02-15T09:05:48.837Z,63.50
2023-02-15T09:10:56.399Z,70.52
2023-02-15T09:16:07.170Z,64.50
2023-02-15T09:21:18.617Z,65.13
2023-02-15T09:26:28.138Z,65.85
2023-02-15T09:31:42.614Z,71.85
2023-02-15T09:42:45.099Z,74.50
2023-02-15T09:48:10.852Z,76.10
2023-02-15T09:53:44.987Z,103.40
2023-02-15T09:59:23.467Z,84.73
2023-02-15T10:04:41.250Z,71.63
2023-02-15T10:10:17.799Z,65.70
2023-02-15T10:15:31.802Z,64.50
2023-02-15T10:21:04.450Z,65.17
2023-02-15T10:26:26.881Z,66.73
2023-02-15T10:31:55.395Z,64.37
2023-02-15T10:37:19.710Z,64.47
2023-02-15T10:42:44.492Z,69.42
2023-02-15T10:48:21.168Z,65.93
2023-02-15T10:54:13.070Z,68.23
2023-02-15T10:59:42.835Z,63.13
2023-02-15T11:05:06.465Z,60.53
2023-02-15T11:10:33.942Z,61.50
2023-02-15T11:15:45.934Z,63.30
2023-02-15T11:21:04.823Z,62.57
2023-02-15T11:26:28.850Z,85.50
2023-02-15T11:31:49.273Z,73.43
2023-02-15T11:37:00.504Z,67.90
2023-02-15T11:42:21.679Z,66.83
2023-02-15T11:47:30.076Z,66.97
2023-02-15T11:52:37.858Z,66.63
2023-02-15T11:57:48.653Z,66.10
2023-02-15T12:02:57.677Z,65.63
2023-02-15T12:08:19.920Z,71.23
2023-02-15T12:13:27.832Z,72.82
2023-02-15T12:18:45.959Z,77.40
2023-02-15T12:24:00.976Z,69.07
2023-02-15T12:29:22.444Z,70.93
2023-02-15T12:34:33.046Z,71.03
2023-02-15T12:39:41.519Z,75.60
2023-02-15T12:45:19.381Z,69.30
2023-02-15T12:50:34.705Z,70.87
2023-02-15T12:55:45.462Z,67.80
2023-02-15T13:00:49.802Z,70.17
2023-02-15T13:05:59.847Z,70.07
2023-02-15T13:11:15.845Z,71.00
2023-02-15T13:16:31.826Z,66.57
2023-02-15T13:21:42.385Z,69.67
2023-02-15T13:26:51.450Z,66.47
2023-02-15T13:32:03.527Z,67.60
2023-02-15T13:37:33.954Z,68.70
2023-02-15T13:43:01.414Z,69.90
2023-02-15T13:48:45.977Z,69.70
2023-02-15T13:53:50.587Z,68.73
2023-02-15T13:59:35.414Z,70.80
2023-02-15T14:04:56.260Z,77.57
2023-02-15T14:10:28.779Z,80.97
2023-02-15T14:15:46.696Z,88.72
2023-02-15T14:21:10.196Z,74.70
2023-02-15T14:26:33.994Z,74.00
2023-02-15T14:31:48.570Z,68.23
2023-02-15T14:36:56.678Z,74.17
2023-02-15T14:42:11.266Z,73.30
2023-02-15T14:47:32.249Z,70.73
2023-02-15T14:52:44.335Z,78.27
2023-02-15T14:58:00.177Z,77.57
2023-02-15T15:03:14.650Z,81.97
2023-02-15T15:08:32.026Z,90.57
2023-02-15T15:13:42.641Z,83.37
2023-02-15T15:18:51.917Z,99.47
2023-02-15T15:23:59.122Z,85.20
2023-02-15T15:29:08.983Z,76.80
2023-02-15T15:34:40.926Z,96.83
2023-02-15T15:40:25.491Z,81.63
2023-02-15T15:46:07.040Z,88.43
2023-02-15T15:51:24.118Z,84.77
2023-02-15T15:56:35.588Z,82.00
2023-02-15T16:01:49.377Z,78.97
2023-02-15T16:06:56.279Z,76.70
2023-02-15T16:12:05.724Z,70.37
2023-02-15T16:17:26.468Z,67.77
2023-02-15T16:22:34.505Z,69.60
2023-02-15T16:27:43.860Z,67.37
2023-02-15T16:32:51.753Z,65.27
2023-02-15T16:37:58.812Z,65.33
2023-02-15T16:43:09.338Z,74.30
2023-02-15T16:48:26.820Z,73.13
2023-02-15T16:53:33.600Z,124.62
2023-02-15T16:58:48.019Z,123.53
2023-02-15T17:03:59.806Z,102.47
2023-02-15T17:09:12.542Z,73.73
2023-02-15T17:14:32.187Z,98.87
2023-02-15T17:19:56.936Z,93.47
2023-02-15T17:25:06.995Z,88.73
2023-02-15T17:30:36.393Z,61.80
2023-02-15T17:35:44.818Z,71.77
2023-02-15T17:40:52.097Z,68.37
2023-02-15T17:46:19.980Z,66.62
2023-02-15T17:51:28.370Z,73.52
2023-02-15T17:56:36.300Z,67.37
2023-02-15T18:02:07.826Z,76.97
2023-02-15T18:07:33.789Z,72.23
2023-02-15T18:12:41.390Z,68.57
2023-02-15T18:17:49.936Z,71.30
2023-02-15T18:22:57.118Z,74.33
2023-02-15T18:33:31.993Z,107.43
2023-02-15T18:38:39.428Z,127.00
2023-02-15T18:43:49.098Z,119.77
2023-02-15T18:48:55.962Z,136.50
2023-02-15T18:54:04.485Z,86.20
2023-02-15T18:59:18.333Z,101.07
2023-02-15T19:04:26.075Z,114.52
2023-02-15T19:09:35.011Z,123.05
2023-02-15T19:14:42.624Z,77.13
2023-02-15T19:19:52.757Z,82.50
2023-02-15T19:25:03.896Z,94.43
2023-02-15T19:30:24.286Z,100.45
2023-02-15T19:35:35.815Z,89.00
2023-02-15T19:40:44.177Z,80.87
2023-02-15T19:51:00.115Z,92.40
2023-02-15T19:56:09.031Z,85.70
2023-02-15T20:01:16.946Z,86.00
2023-02-15T20:06:26.647Z,112.20
2023-02-15T20:11:34.266Z,241.78
2023-02-15T20:16:41.656Z,146.63
2023-02-15T20:21:53.599Z,118.63
2023-02-15T20:27:02.330Z,93.87
2023-02-15T20:32:11.678Z,92.10
2023-02-15T20:37:27.741Z,98.67
2023-02-15T20:42:34.517Z,96.60
2023-02-15T20:47:42.893Z,103.67
2023-02-15T20:52:52.829Z,109.93
2023-02-15T20:58:01.923Z,105.83
2023-02-15T21:03:12.479Z,106.77
2023-02-15T21:08:23.718Z,104.12
2023-02-15T21:13:37.348Z,113.87
2023-02-15T21:18:45.400Z,164.73
2023-02-15T21:23:55.159Z,118.23
2023-02-15T21:29:03.742Z,90.87
2023-02-15T21:34:11.312Z,93.17
2023-02-15T21:39:26.280Z,111.67
2023-02-15T21:44:51.663Z,159.85
2023-02-15T21:49:58.375Z,222.87
2023-02-15T21:55:11.237Z,125.03
2023-02-15T22:00:22.585Z,112.73
2023-02-15T22:05:34.917Z,95.77
2023-02-15T22:10:43.189Z,99.77
2023-02-15T22:15:50.104Z,93.00
2023-02-15T22:21:00.526Z,69.65
2023-02-15T22:26:23.678Z,77.43
2023-02-15T22:31:31.451Z,67.45
2023-02-15T22:36:39.811Z,73.00
2023-02-15T22:41:49.428Z,57.13
2023-02-15T22:46:56.298Z,84.37
2023-02-15T22:52:03.908Z,76.97
2023-02-15T22:57:21.218Z,60.37
2023-02-15T23:02:28.266Z,104.77
2023-02-15T23:07:35.657Z,89.03
2023-02-15T23:13:01.392Z,64.27
2023-02-15T23:18:32.931Z,72.33
2023-02-15T23:23:47.050Z,68.27
2023-02-15T23:28:56.502Z,72.20
2023-02-15T23:34:07.944Z,78.37
2023-02-15T23:39:37.922Z,86.17
2023-02-15T23:44:46.528Z,89.97
2023-02-15T23:49:54.377Z,94.40
2023-02-15T23:55:01.668Z,76.00
